Terminal Aerodrome Forecast
Issued by NWS Charleston, WV

Current Version | Previous Version | Text Only | Print | Product List | Glossary Off
Versions: 1 2 3 4 5 6 7 8 9 10 11 12 13 14 15 16 17 18 19 20 21 22 23 24

000
FTUS41 KRLX 151700 RRA
TAFEKN
TAF
KEKN 151750Z 1518/1618 32005KT P6SM SCT250
     FM160500 00000KT 5SM BR OVC250
     FM160600 00000KT 2SM BR BKN040 OVC120
     FM160900 00000KT 5SM BR VCSH OVC020
     FM161200 VRB03KT P6SM OVC015
     FM161600 VRB03KT P6SM BKN025=

USA.gov is the U.S. government's official web portal to all federal, state and local government web resources and services.